Middle Wallop, United Kingdom
Current Conditions -  °F | °C
As of 9:50 PM on Thursday 23 Oct 2014 (Local Time) from EGVP Reporting Station
Broken Clouds Broken Clouds  
Wind Chill: 57°   Ceiling: 600
Heat Index: 57°   Visibility: 6mi
Dew Point: 55°   Wind: 7mph
Humidity: 94%   Direction: 210°SSW
Pressure: 30.03"   Gusts: NA
Location:  51.15°N, 1.57°W
Report Text: EGVP 232050Z AUTO 21006KT 9999 // BKN006/// SCT014/// 14/13 Q1017
Loading
Personal Weather Stations






























Interactive Weather Map
Tropical Storm Tracking
New forecast layout! Learn more

10-Day Weather Forecast

Advertisements
Track Severe Weather on mobile